Flight Track Log - Related Links

Times and Time Zones

All times are in EDT time to prevent confusion due to time zone crossing. See the SVA1480 flight status page for this flight to view local times or setup timezone preferences in your user account.

Time Position Orientation Groundspeed Altitude Reporting Facility
EDT Latitude Longitude Course Direction KTS MPH feet Rate Location/Type
Thu 01:13:00 AM 26.6970 46.4076 171° South  Level Estimated
Thu 01:14:00 AM 26.6006 46.4240 171° South  Level Estimated
Thu 01:15:00 AM 26.5042 46.4403 171° South  Level Estimated
Thu 01:16:00 AM 26.4078 46.4566 171° South  Level Estimated
Thu 01:17:00 AM 26.3114 46.4729 171° South  Level Estimated
Thu 01:18:00 AM 26.2150 46.4892 171° South  Level Estimated
Thu 01:19:00 AM 26.1187 46.5054 171° South  Level Estimated
Thu 01:20:00 AM 26.0223 46.5216 171° South  Level Estimated
Thu 01:21:00 AM 25.9259 46.5378 171° South  Level Estimated
Thu 01:22:00 AM 25.8295 46.5539 171° South  Level Estimated
Thu 01:23:00 AM 25.7331 46.5700 171° South  Level Estimated
Thu 01:24:00 AM 25.6367 46.5861 171° South  Level Estimated
Thu 01:25:00 AM 25.5403 46.6022 171° South  Level Estimated
Thu 01:26:00 AM 25.4439 46.6183 171° South  Level Estimated
Thu 01:27:00 AM 25.3475 46.6343 171° South  Level Estimated
Thu 01:28:00 AM 25.2511 46.6503 171° South  Level Estimated
Thu 01:29:00 AM 25.1546 46.6662 171° South  Level Estimated
Thu 01:30:00 AM 25.0582 46.6822 171° South  Level Estimated
Thu 01:31:00 AM 24.9618 46.6981 171° South  Level Estimated
Thu 01:32:00 AM 24.9576 46.6988 172° South  Level Estimated
Thu 01:33:00 AM 24.9576 46.6988 270° West  Level Estimated
Thu 01:34:00 AM 24.9576 46.6988 270° West  Level Estimated
Thu 01:35:00 AM 24.9576 46.6988 270° West  Level Estimated
Thu 01:36:00 AM 24.9576 46.6988 270° West  Level Estimated
Thu 01:37:00 AM 24.9576 46.6988 270° West  Level Estimated
Thu 01:38:00 AM 24.9576 46.6988 270° West  Level Estimated
Thu 01:39:00 AM 24.9576 46.6988 270° West  Level Estimated
Thu 01:40:00 AM 24.9576 46.6988 270° West  Level Estimated
Thu 01:41:00 AM 24.9576 46.6988 270° West  Level Estimated
Thu 01:42:00 AM 24.9576 46.6988 270° West  Level Estimated
Thu 01:43:00 AM 24.9576 46.6988 270° West  Level Estimated
Thu 01:44:00 AM 24.9576 46.6988 270° West  Level Estimated
Thu 01:45:00 AM 24.9576 46.6988 270° West  Level Estimated
Thu 01:46:00 AM 24.9576 46.6988 270° West  Level Estimated
Thu 01:47:00 AM 24.9576 46.6988 270° West  Level Estimated

Login

Don't have an account? Register now (free) for customized features, flight alerts, and more!